KPDT/PDT METAR and TAF weather

Enter ICAO airport designator
Station Type Date Time Source
KPDT METAR 2020/01/17 13:53 UTC NOAA

KPDT 171353Z 17006KT 10SM CLR M06/M10 A3006 RMK AO2 SLP192 T10611100


Station Type Date Time Source
KPDT Decoded METAR 2020/01/17 13:53 UTC NOAA

PENDLETON MUNICIPAL AIRPORT, OR, United States (KPDT) 45-70N 118-83W 458M
Jan 17, 2020 - 08:53 AM EST / 2020.01.17 1353 UTC
Wind: from the S (170 degrees) at 7 MPH (6 KT):0
Visibility: 10 mile(s):0
Sky conditions: clear
Temperature: 21.0 F (-6.1 C)
Windchill: 12 F (-11 C):1
Dew Point: 14.0 F (-10.0 C)
Relative Humidity: 73%
Pressure (altimeter): 30.06 in. Hg (1017 hPa)
ob: KPDT 171353Z 17006KT 10SM CLR M06/M10 A3006 RMK AO2 SLP192 T10611100
cycle: 14

Station Type Date Time Source
KPDT TAF 2020/01/17 13:21 UTC NOAA

TAF
AMD KPDT 171319Z 1713/1812 16005KT P6SM SCT050
FM171600 17005KT P6SM SCT080
FM172100 26007KT P6SM OVC050
FM180200 12004KT 5SM BR OVC050

Example: see airport list